sensor_id;sensor_type;location;lat;lon;timestamp;pressure;altitude;pressure_sealevel;temperature
71081;BMP180;58740;50.672;18.690;2023-04-06T00:02:02;99398.20;;;0.20
71081;BMP180;58740;50.672;18.690;2023-04-06T00:04:29;99402.00;;;0.20
71081;BMP180;58740;50.672;18.690;2023-04-06T00:06:57;99398.60;;;0.16
71081;BMP180;58740;50.672;18.690;2023-04-06T00:09:25;99401.20;;;0.14
71081;BMP180;58740;50.672;18.690;2023-04-06T00:11:53;99389.00;;;0.10
71081;BMP180;58740;50.672;18.690;2023-04-06T00:14:21;99396.40;;;0.18
71081;BMP180;58740;50.672;18.690;2023-04-06T00:16:49;99396.60;;;0.20
71081;BMP180;58740;50.672;18.690;2023-04-06T00:19:17;99395.80;;;0.20
71081;BMP180;58740;50.672;18.690;2023-04-06T00:21:44;99391.20;;;0.26
71081;BMP180;58740;50.672;18.690;2023-04-06T00:24:13;99380.60;;;0.30
71081;BMP180;58740;50.672;18.690;2023-04-06T00:26:40;99382.20;;;0.30
71081;BMP180;58740;50.672;18.690;2023-04-06T00:29:08;99387.60;;;0.30
71081;BMP180;58740;50.672;18.690;2023-04-06T00:31:36;99387.20;;;0.30
71081;BMP180;58740;50.672;18.690;2023-04-06T00:34:05;99391.20;;;0.40
71081;BMP180;58740;50.672;18.690;2023-04-06T00:36:33;99391.00;;;0.36
71081;BMP180;58740;50.672;18.690;2023-04-06T00:39:01;99388.20;;;0.34
71081;BMP180;58740;50.672;18.690;2023-04-06T00:41:28;99381.00;;;0.30
71081;BMP180;58740;50.672;18.690;2023-04-06T00:43:56;99378.80;;;0.30
71081;BMP180;58740;50.672;18.690;2023-04-06T00:46:24;99383.60;;;0.30
71081;BMP180;58740;50.672;18.690;2023-04-06T00:48:52;99386.00;;;0.28
71081;BMP180;58740;50.672;18.690;2023-04-06T00:51:19;99388.00;;;0.20
71081;BMP180;58740;50.672;18.690;2023-04-06T00:53:47;99392.80;;;0.20
71081;BMP180;58740;50.672;18.690;2023-04-06T00:56:15;99383.40;;;0.20
71081;BMP180;58740;50.672;18.690;2023-04-06T00:58:43;99385.00;;;0.20
71081;BMP180;58740;50.672;18.690;2023-04-06T01:01:11;99383.40;;;0.18
71081;BMP180;58740;50.672;18.690;2023-04-06T01:03:38;99383.40;;;0.14
71081;BMP180;58740;50.672;18.690;2023-04-06T01:06:06;99386.60;;;0.10
71081;BMP180;58740;50.672;18.690;2023-04-06T01:08:34;99385.40;;;0.10
71081;BMP180;58740;50.672;18.690;2023-04-06T01:11:02;99381.60;;;0.10
71081;BMP180;58740;50.672;18.690;2023-04-06T01:13:29;99381.60;;;0.06
71081;BMP180;58740;50.672;18.690;2023-04-06T01:15:57;99382.40;;;0.00
71081;BMP180;58740;50.672;18.690;2023-04-06T01:18:27;99377.60;;;0.00
71081;BMP180;58740;50.672;18.690;2023-04-06T01:20:55;99377.60;;;-0.10
71081;BMP180;58740;50.672;18.690;2023-04-06T01:23:23;99380.80;;;-0.10
71081;BMP180;58740;50.672;18.690;2023-04-06T01:25:51;99378.20;;;-0.10
71081;BMP180;58740;50.672;18.690;2023-04-06T01:28:18;99382.40;;;-0.10
71081;BMP180;58740;50.672;18.690;2023-04-06T01:30:46;99376.80;;;-0.10
71081;BMP180;58740;50.672;18.690;2023-04-06T01:33:14;99377.20;;;-0.10
71081;BMP180;58740;50.672;18.690;2023-04-06T01:35:42;99380.40;;;-0.10
71081;BMP180;58740;50.672;18.690;2023-04-06T01:38:09;99381.80;;;-0.10
71081;BMP180;58740;50.672;18.690;2023-04-06T01:40:37;99382.40;;;-0.10
71081;BMP180;58740;50.672;18.690;2023-04-06T01:43:05;99384.20;;;-0.10
71081;BMP180;58740;50.672;18.690;2023-04-06T01:45:34;99385.60;;;-0.10
71081;BMP180;58740;50.672;18.690;2023-04-06T01:48:01;99379.40;;;-0.04
71081;BMP180;58740;50.672;18.690;2023-04-06T01:50:29;99375.20;;;-0.04
71081;BMP180;58740;50.672;18.690;2023-04-06T01:52:57;99378.20;;;-0.06
71081;BMP180;58740;50.672;18.690;2023-04-06T01:55:25;99370.80;;;-0.10
71081;BMP180;58740;50.672;18.690;2023-04-06T01:57:53;99376.40;;;-0.10
71081;BMP180;58740;50.672;18.690;2023-04-06T02:00:21;99377.60;;;-0.10
71081;BMP180;58740;50.672;18.690;2023-04-06T02:02:49;99376.40;;;-0.10
71081;BMP180;58740;50.672;18.690;2023-04-06T02:05:16;99372.60;;;-0.10
71081;BMP180;58740;50.672;18.690;2023-04-06T02:07:44;99376.80;;;-0.10
71081;BMP180;58740;50.672;18.690;2023-04-06T02:10:14;99373.60;;;-0.10
71081;BMP180;58740;50.672;18.690;2023-04-06T02:12:42;99378.40;;;-0.10
71081;BMP180;58740;50.672;18.690;2023-04-06T02:15:10;99375.80;;;-0.10
71081;BMP180;58740;50.672;18.690;2023-04-06T02:17:38;99369.40;;;-0.10
71081;BMP180;58740;50.672;18.690;2023-04-06T02:20:06;99371.40;;;-0.10
71081;BMP180;58740;50.672;18.690;2023-04-06T02:22:35;99369.20;;;-0.10
71081;BMP180;58740;50.672;18.690;2023-04-06T02:25:03;99375.00;;;-0.10
71081;BMP180;58740;50.672;18.690;2023-04-06T02:27:31;99371.80;;;-0.10
71081;BMP180;58740;50.672;18.690;2023-04-06T02:29:59;99373.00;;;-0.10
71081;BMP180;58740;50.672;18.690;2023-04-06T02:32:27;99375.40;;;-0.10
71081;BMP180;58740;50.672;18.690;2023-04-06T02:34:55;99373.20;;;-0.10
71081;BMP180;58740;50.672;18.690;2023-04-06T02:37:23;99370.20;;;-0.04
71081;BMP180;58740;50.672;18.690;2023-04-06T02:39:53;99372.20;;;0.00
71081;BMP180;58740;50.672;18.690;2023-04-06T02:42:21;99365.80;;;0.00
71081;BMP180;58740;50.672;18.690;2023-04-06T02:44:49;99365.00;;;0.00
71081;BMP180;58740;50.672;18.690;2023-04-06T02:47:17;99365.00;;;-0.06
71081;BMP180;58740;50.672;18.690;2023-04-06T02:49:44;99371.00;;;-0.10
71081;BMP180;58740;50.672;18.690;2023-04-06T02:52:15;99373.40;;;-0.10
71081;BMP180;58740;50.672;18.690;2023-04-06T02:54:43;99376.40;;;-0.10
71081;BMP180;58740;50.672;18.690;2023-04-06T02:57:10;99371.60;;;-0.10
71081;BMP180;58740;50.672;18.690;2023-04-06T02:59:38;99369.00;;;-0.12
71081;BMP180;58740;50.672;18.690;2023-04-06T03:02:06;99369.20;;;-0.16
71081;BMP180;58740;50.672;18.690;2023-04-06T03:04:33;99364.60;;;-0.20
71081;BMP180;58740;50.672;18.690;2023-04-06T03:07:01;99366.80;;;-0.20
71081;BMP180;58740;50.672;18.690;2023-04-06T03:09:29;99367.60;;;-0.22
71081;BMP180;58740;50.672;18.690;2023-04-06T03:11:57;99370.60;;;-0.30
71081;BMP180;58740;50.672;18.690;2023-04-06T03:14:24;99366.00;;;-0.30
71081;BMP180;58740;50.672;18.690;2023-04-06T03:16:52;99368.80;;;-0.40
71081;BMP180;58740;50.672;18.690;2023-04-06T03:19:20;99375.00;;;-0.50
71081;BMP180;58740;50.672;18.690;2023-04-06T03:21:48;99381.80;;;-0.50
71081;BMP180;58740;50.672;18.690;2023-04-06T03:24:15;99384.20;;;-0.50
71081;BMP180;58740;50.672;18.690;2023-04-06T03:26:43;99382.20;;;-0.50
71081;BMP180;58740;50.672;18.690;2023-04-06T03:29:11;99384.20;;;-0.50
71081;BMP180;58740;50.672;18.690;2023-04-06T03:31:39;99379.00;;;-0.50
71081;BMP180;58740;50.672;18.690;2023-04-06T03:34:06;99378.80;;;-0.50
71081;BMP180;58740;50.672;18.690;2023-04-06T03:36:35;99377.80;;;-0.50
71081;BMP180;58740;50.672;18.690;2023-04-06T03:39:03;99384.00;;;-0.50
71081;BMP180;58740;50.672;18.690;2023-04-06T03:41:30;99387.80;;;-0.54
71081;BMP180;58740;50.672;18.690;2023-04-06T03:43:58;99389.60;;;-0.60
71081;BMP180;58740;50.672;18.690;2023-04-06T03:46:26;99383.80;;;-0.60
71081;BMP180;58740;50.672;18.690;2023-04-06T03:48:54;99392.80;;;-0.60
71081;BMP180;58740;50.672;18.690;2023-04-06T03:51:22;99390.80;;;-0.60
71081;BMP180;58740;50.672;18.690;2023-04-06T03:53:49;99384.80;;;-0.70
71081;BMP180;58740;50.672;18.690;2023-04-06T03:56:17;99389.00;;;-0.80
71081;BMP180;58740;50.672;18.690;2023-04-06T03:58:45;99389.00;;;-0.80
71081;BMP180;58740;50.672;18.690;2023-04-06T04:01:17;99392.40;;;-0.80
71081;BMP180;58740;50.672;18.690;2023-04-06T04:03:45;99390.60;;;-0.80
71081;BMP180;58740;50.672;18.690;2023-04-06T04:06:16;99390.20;;;-0.80
71081;BMP180;58740;50.672;18.690;2023-04-06T04:08:44;99390.20;;;-0.90
71081;BMP180;58740;50.672;18.690;2023-04-06T04:11:12;99393.40;;;-0.90
71081;BMP180;58740;50.672;18.690;2023-04-06T04:13:39;99393.40;;;-0.90
71081;BMP180;58740;50.672;18.690;2023-04-06T04:16:07;99388.60;;;-0.90
71081;BMP180;58740;50.672;18.690;2023-04-06T04:18:35;99390.40;;;-0.94
71081;BMP180;58740;50.672;18.690;2023-04-06T04:21:04;99393.80;;;-1.00
71081;BMP180;58740;50.672;18.690;2023-04-06T04:23:31;99398.60;;;-1.00
71081;BMP180;58740;50.672;18.690;2023-04-06T04:25:59;99389.60;;;-0.98
71081;BMP180;58740;50.672;18.690;2023-04-06T04:28:27;99391.60;;;-0.96
71081;BMP180;58740;50.672;18.690;2023-04-06T04:30:55;99392.60;;;-1.00
71081;BMP180;58740;50.672;18.690;2023-04-06T04:33:22;99385.60;;;-1.00
71081;BMP180;58740;50.672;18.690;2023-04-06T04:35:50;99388.60;;;-1.04
71081;BMP180;58740;50.672;18.690;2023-04-06T04:38:18;99395.00;;;-1.00
71081;BMP180;58740;50.672;18.690;2023-04-06T04:40:46;99395.80;;;-1.00
71081;BMP180;58740;50.672;18.690;2023-04-06T04:43:13;99398.40;;;-1.00
71081;BMP180;58740;50.672;18.690;2023-04-06T04:45:41;99392.20;;;-1.00
71081;BMP180;58740;50.672;18.690;2023-04-06T04:48:09;99400.20;;;-1.10
71081;BMP180;58740;50.672;18.690;2023-04-06T04:50:37;99397.00;;;-1.10
71081;BMP180;58740;50.672;18.690;2023-04-06T04:53:05;99395.00;;;-1.10
71081;BMP180;58740;50.672;18.690;2023-04-06T04:55:33;99394.40;;;-1.10
71081;BMP180;58740;50.672;18.690;2023-04-06T04:58:01;99394.80;;;-1.10
71081;BMP180;58740;50.672;18.690;2023-04-06T05:00:29;99396.20;;;-1.10
71081;BMP180;58740;50.672;18.690;2023-04-06T05:02:58;99398.20;;;-1.00
71081;BMP180;58740;50.672;18.690;2023-04-06T05:05:25;99394.80;;;-0.90
71081;BMP180;58740;50.672;18.690;2023-04-06T05:07:53;99396.60;;;-0.90
71081;BMP180;58740;50.672;18.690;2023-04-06T05:10:21;99395.40;;;-0.90
71081;BMP180;58740;50.672;18.690;2023-04-06T05:12:49;99400.60;;;-0.80
71081;BMP180;58740;50.672;18.690;2023-04-06T05:15:17;99396.20;;;-0.80
71081;BMP180;58740;50.672;18.690;2023-04-06T05:17:44;99391.20;;;-0.80
71081;BMP180;58740;50.672;18.690;2023-04-06T05:20:12;99387.40;;;-0.80
71081;BMP180;58740;50.672;18.690;2023-04-06T05:22:40;99386.60;;;-0.70
71081;BMP180;58740;50.672;18.690;2023-04-06T05:25:08;99395.40;;;-0.70
71081;BMP180;58740;50.672;18.690;2023-04-06T05:27:36;99391.80;;;-0.60
71081;BMP180;58740;50.672;18.690;2023-04-06T05:30:05;99393.20;;;-0.60
71081;BMP180;58740;50.672;18.690;2023-04-06T05:32:34;99391.00;;;-0.54
71081;BMP180;58740;50.672;18.690;2023-04-06T05:35:02;99389.80;;;-0.50
71081;BMP180;58740;50.672;18.690;2023-04-06T05:37:29;99387.40;;;-0.50
71081;BMP180;58740;50.672;18.690;2023-04-06T05:39:57;99385.20;;;-0.50
71081;BMP180;58740;50.672;18.690;2023-04-06T05:42:25;99380.40;;;-0.40
71081;BMP180;58740;50.672;18.690;2023-04-06T05:45:11;99383.40;;;-0.38
71081;BMP180;58740;50.672;18.690;2023-04-06T05:47:44;99381.00;;;-0.30
71081;BMP180;58740;50.672;18.690;2023-04-06T05:50:14;99382.20;;;-0.20
71081;BMP180;58740;50.672;18.690;2023-04-06T05:52:42;99377.40;;;-0.10
71081;BMP180;58740;50.672;18.690;2023-04-06T05:55:12;99376.20;;;-0.10
71081;BMP180;58740;50.672;18.690;2023-04-06T05:57:40;99377.80;;;0.00
71081;BMP180;58740;50.672;18.690;2023-04-06T06:00:09;99375.80;;;0.10
71081;BMP180;58740;50.672;18.690;2023-04-06T06:02:37;99376.60;;;0.10
71081;BMP180;58740;50.672;18.690;2023-04-06T06:05:05;99384.20;;;0.16
71081;BMP180;58740;50.672;18.690;2023-04-06T06:07:33;99385.40;;;0.20
71081;BMP180;58740;50.672;18.690;2023-04-06T06:10:01;99385.20;;;0.30
71081;BMP180;58740;50.672;18.690;2023-04-06T06:12:29;99376.80;;;0.40
71081;BMP180;58740;50.672;18.690;2023-04-06T06:14:57;99377.60;;;0.50
71081;BMP180;58740;50.672;18.690;2023-04-06T06:17:24;99378.20;;;0.60
71081;BMP180;58740;50.672;18.690;2023-04-06T06:19:52;99384.40;;;0.68
71081;BMP180;58740;50.672;18.690;2023-04-06T06:22:20;99376.20;;;0.70
71081;BMP180;58740;50.672;18.690;2023-04-06T06:24:47;99370.80;;;0.78
71081;BMP180;58740;50.672;18.690;2023-04-06T06:27:15;99369.40;;;0.80
71081;BMP180;58740;50.672;18.690;2023-04-06T06:29:43;99374.60;;;0.90
71081;BMP180;58740;50.672;18.690;2023-04-06T06:32:10;99376.60;;;0.90
71081;BMP180;58740;50.672;18.690;2023-04-06T06:34:38;99371.20;;;0.90
71081;BMP180;58740;50.672;18.690;2023-04-06T06:37:06;99374.80;;;0.90
71081;BMP180;58740;50.672;18.690;2023-04-06T06:39:34;99374.40;;;1.00
71081;BMP180;58740;50.672;18.690;2023-04-06T06:42:02;99379.60;;;1.10
71081;BMP180;58740;50.672;18.690;2023-04-06T06:44:30;99377.80;;;1.20
71081;BMP180;58740;50.672;18.690;2023-04-06T06:46:57;99381.00;;;1.28
71081;BMP180;58740;50.672;18.690;2023-04-06T06:49:25;99379.20;;;1.30
71081;BMP180;58740;50.672;18.690;2023-04-06T06:51:53;99368.00;;;1.40
71081;BMP180;58740;50.672;18.690;2023-04-06T06:54:21;99379.40;;;1.40
71081;BMP180;58740;50.672;18.690;2023-04-06T06:56:49;99373.00;;;1.50
71081;BMP180;58740;50.672;18.690;2023-04-06T06:59:17;99375.60;;;1.50
71081;BMP180;58740;50.672;18.690;2023-04-06T07:01:44;99377.20;;;1.60
71081;BMP180;58740;50.672;18.690;2023-04-06T07:04:13;99380.20;;;1.60
71081;BMP180;58740;50.672;18.690;2023-04-06T07:06:40;99376.40;;;1.60
71081;BMP180;58740;50.672;18.690;2023-04-06T07:09:08;99373.80;;;1.70
71081;BMP180;58740;50.672;18.690;2023-04-06T07:11:36;99372.60;;;1.70
71081;BMP180;58740;50.672;18.690;2023-04-06T07:14:04;99374.00;;;1.70
71081;BMP180;58740;50.672;18.690;2023-04-06T07:16:32;99370.00;;;1.80
71081;BMP180;58740;50.672;18.690;2023-04-06T07:19:00;99371.00;;;1.80
71081;BMP180;58740;50.672;18.690;2023-04-06T07:21:27;99377.60;;;1.80
71081;BMP180;58740;50.672;18.690;2023-04-06T07:23:55;99382.00;;;1.80
71081;BMP180;58740;50.672;18.690;2023-04-06T07:26:22;99380.00;;;1.90
71081;BMP180;58740;50.672;18.690;2023-04-06T07:28:50;99379.20;;;1.90
71081;BMP180;58740;50.672;18.690;2023-04-06T07:31:18;99384.20;;;1.90
71081;BMP180;58740;50.672;18.690;2023-04-06T07:33:46;99380.60;;;1.96
71081;BMP180;58740;50.672;18.690;2023-04-06T07:36:14;99386.00;;;2.00
71081;BMP180;58740;50.672;18.690;2023-04-06T07:38:42;99379.20;;;2.10
71081;BMP180;58740;50.672;18.690;2023-04-06T07:41:10;99381.40;;;2.10
71081;BMP180;58740;50.672;18.690;2023-04-06T07:43:37;99379.40;;;2.20
71081;BMP180;58740;50.672;18.690;2023-04-06T07:46:06;99375.80;;;2.20
71081;BMP180;58740;50.672;18.690;2023-04-06T07:48:33;99380.80;;;2.22
71081;BMP180;58740;50.672;18.690;2023-04-06T07:51:03;99379.80;;;2.30
71081;BMP180;58740;50.672;18.690;2023-04-06T07:53:31;99375.20;;;2.30
71081;BMP180;58740;50.672;18.690;2023-04-06T07:55:59;99373.20;;;2.40
71081;BMP180;58740;50.672;18.690;2023-04-06T07:58:27;99376.20;;;2.50
71081;BMP180;58740;50.672;18.690;2023-04-06T08:00:55;99374.00;;;2.58
71081;BMP180;58740;50.672;18.690;2023-04-06T08:03:23;99371.80;;;2.60
71081;BMP180;58740;50.672;18.690;2023-04-06T08:05:53;99365.20;;;2.60
71081;BMP180;58740;50.672;18.690;2023-04-06T08:08:21;99371.00;;;2.70
71081;BMP180;58740;50.672;18.690;2023-04-06T08:10:49;99368.40;;;2.80
71081;BMP180;58740;50.672;18.690;2023-04-06T08:13:17;99361.80;;;2.90
71081;BMP180;58740;50.672;18.690;2023-04-06T08:15:45;99363.60;;;3.00
71081;BMP180;58740;50.672;18.690;2023-04-06T08:18:13;99362.00;;;3.10
71081;BMP180;58740;50.672;18.690;2023-04-06T08:20:41;99359.60;;;3.10
71081;BMP180;58740;50.672;18.690;2023-04-06T08:23:09;99370.80;;;3.20
71081;BMP180;58740;50.672;18.690;2023-04-06T08:25:38;99365.60;;;3.10
71081;BMP180;58740;50.672;18.690;2023-04-06T08:28:06;99357.20;;;3.10
71081;BMP180;58740;50.672;18.690;2023-04-06T08:30:34;99360.00;;;3.10
71081;BMP180;58740;50.672;18.690;2023-04-06T08:33:01;99357.60;;;3.20
71081;BMP180;58740;50.672;18.690;2023-04-06T08:35:29;99352.40;;;3.30
71081;BMP180;58740;50.672;18.690;2023-04-06T08:37:57;99352.20;;;3.30
71081;BMP180;58740;50.672;18.690;2023-04-06T08:40:25;99353.20;;;3.40
71081;BMP180;58740;50.672;18.690;2023-04-06T08:42:56;99348.40;;;3.40
71081;BMP180;58740;50.672;18.690;2023-04-06T08:45:24;99349.80;;;3.40
71081;BMP180;58740;50.672;18.690;2023-04-06T08:47:52;99348.80;;;3.30
71081;BMP180;58740;50.672;18.690;2023-04-06T08:50:21;99352.40;;;3.30
71081;BMP180;58740;50.672;18.690;2023-04-06T08:52:49;99343.60;;;3.20
71081;BMP180;58740;50.672;18.690;2023-04-06T08:55:17;99348.40;;;3.20
71081;BMP180;58740;50.672;18.690;2023-04-06T08:57:46;99342.40;;;3.20
71081;BMP180;58740;50.672;18.690;2023-04-06T09:00:16;99348.00;;;3.12
71081;BMP180;58740;50.672;18.690;2023-04-06T09:02:46;99345.80;;;3.16
71081;BMP180;58740;50.672;18.690;2023-04-06T09:05:15;99352.60;;;3.10
71081;BMP180;58740;50.672;18.690;2023-04-06T09:07:45;99347.60;;;3.10
71081;BMP180;58740;50.672;18.690;2023-04-06T09:10:12;99354.00;;;3.10
71081;BMP180;58740;50.672;18.690;2023-04-06T09:12:40;99355.20;;;3.12
71081;BMP180;58740;50.672;18.690;2023-04-06T09:15:19;99348.40;;;3.10
71081;BMP180;58740;50.672;18.690;2023-04-06T09:17:51;99351.40;;;3.10
71081;BMP180;58740;50.672;18.690;2023-04-06T09:20:25;99347.40;;;3.10
71081;BMP180;58740;50.672;18.690;2023-04-06T09:22:55;99344.60;;;3.10
71081;BMP180;58740;50.672;18.690;2023-04-06T09:25:25;99349.20;;;3.10
71081;BMP180;58740;50.672;18.690;2023-04-06T09:28:04;99350.20;;;3.10
71081;BMP180;58740;50.672;18.690;2023-04-06T09:30:34;99345.60;;;3.10
71081;BMP180;58740;50.672;18.690;2023-04-06T09:33:03;99348.60;;;3.20
71081;BMP180;58740;50.672;18.690;2023-04-06T09:35:31;99341.80;;;3.26
71081;BMP180;58740;50.672;18.690;2023-04-06T09:38:11;99327.60;;;3.30
71081;BMP180;58740;50.672;18.690;2023-04-06T09:40:49;99332.60;;;3.30
71081;BMP180;58740;50.672;18.690;2023-04-06T09:43:28;99334.00;;;3.30
71081;BMP180;58740;50.672;18.690;2023-04-06T09:46:00;99334.20;;;3.36
71081;BMP180;58740;50.672;18.690;2023-04-06T09:48:33;99320.60;;;3.40
71081;BMP180;58740;50.672;18.690;2023-04-06T09:51:06;99322.20;;;3.40
71081;BMP180;58740;50.672;18.690;2023-04-06T09:53:39;99322.00;;;3.40
71081;BMP180;58740;50.672;18.690;2023-04-06T09:56:12;99318.40;;;3.50
71081;BMP180;58740;50.672;18.690;2023-04-06T09:58:46;99325.60;;;3.60
71081;BMP180;58740;50.672;18.690;2023-04-06T10:01:20;99320.60;;;3.60
71081;BMP180;58740;50.672;18.690;2023-04-06T10:06:41;99312.00;;;3.60
71081;BMP180;58740;50.672;18.690;2023-04-06T10:09:09;99310.20;;;3.60
71081;BMP180;58740;50.672;18.690;2023-04-06T10:11:38;99309.80;;;3.70
71081;BMP180;58740;50.672;18.690;2023-04-06T10:14:07;99312.00;;;3.70
71081;BMP180;58740;50.672;18.690;2023-04-06T10:16:35;99307.60;;;3.70
71081;BMP180;58740;50.672;18.690;2023-04-06T10:19:18;99302.60;;;3.70
71081;BMP180;58740;50.672;18.690;2023-04-06T10:21:54;99293.20;;;3.70
71081;BMP180;58740;50.672;18.690;2023-04-06T10:24:22;99291.40;;;3.70
71081;BMP180;58740;50.672;18.690;2023-04-06T10:27:03;99292.60;;;3.80
71081;BMP180;58740;50.672;18.690;2023-04-06T10:29:48;99287.00;;;3.80
71081;BMP180;58740;50.672;18.690;2023-04-06T10:32:17;99276.20;;;3.80
71081;BMP180;58740;50.672;18.690;2023-04-06T10:34:45;99277.20;;;3.90
71081;BMP180;58740;50.672;18.690;2023-04-06T10:37:14;99275.40;;;4.00
71081;BMP180;58740;50.672;18.690;2023-04-06T10:39:55;99276.80;;;4.00
71081;BMP180;58740;50.672;18.690;2023-04-06T10:42:36;99281.40;;;4.02
71081;BMP180;58740;50.672;18.690;2023-04-06T10:45:07;99278.80;;;4.00
71081;BMP180;58740;50.672;18.690;2023-04-06T10:47:41;99273.20;;;4.00
71081;BMP180;58740;50.672;18.690;2023-04-06T10:50:14;99268.20;;;4.00
71081;BMP180;58740;50.672;18.690;2023-04-06T10:52:45;99259.00;;;4.10
71081;BMP180;58740;50.672;18.690;2023-04-06T10:55:15;99257.00;;;4.10
71081;BMP180;58740;50.672;18.690;2023-04-06T10:57:46;99252.80;;;4.16
71081;BMP180;58740;50.672;18.690;2023-04-06T11:00:14;99251.00;;;4.20
71081;BMP180;58740;50.672;18.690;2023-04-06T11:02:42;99252.00;;;4.20
71081;BMP180;58740;50.672;18.690;2023-04-06T11:05:12;99254.00;;;4.20
71081;BMP180;58740;50.672;18.690;2023-04-06T11:07:41;99251.60;;;4.20
71081;BMP180;58740;50.672;18.690;2023-04-06T11:10:09;99248.00;;;4.22
71081;BMP180;58740;50.672;18.690;2023-04-06T11:12:44;99252.80;;;4.30
71081;BMP180;58740;50.672;18.690;2023-04-06T11:15:12;99256.00;;;4.26
71081;BMP180;58740;50.672;18.690;2023-04-06T11:17:40;99243.20;;;4.22
71081;BMP180;58740;50.672;18.690;2023-04-06T11:20:11;99245.00;;;4.28
71081;BMP180;58740;50.672;18.690;2023-04-06T11:22:53;99243.00;;;4.30
71081;BMP180;58740;50.672;18.690;2023-04-06T11:25:20;99239.60;;;4.30
71081;BMP180;58740;50.672;18.690;2023-04-06T11:27:49;99245.20;;;4.30
71081;BMP180;58740;50.672;18.690;2023-04-06T11:30:17;99247.60;;;4.30
71081;BMP180;58740;50.672;18.690;2023-04-06T11:32:45;99249.00;;;4.30
71081;BMP180;58740;50.672;18.690;2023-04-06T11:35:23;99246.40;;;4.28
71081;BMP180;58740;50.672;18.690;2023-04-06T11:37:51;99242.40;;;4.24
71081;BMP180;58740;50.672;18.690;2023-04-06T11:40:22;99239.60;;;4.26
71081;BMP180;58740;50.672;18.690;2023-04-06T11:42:54;99233.40;;;4.30
71081;BMP180;58740;50.672;18.690;2023-04-06T11:45:23;99243.00;;;4.30
71081;BMP180;58740;50.672;18.690;2023-04-06T11:48:00;99235.80;;;4.30
71081;BMP180;58740;50.672;18.690;2023-04-06T11:50:34;99235.00;;;4.30
71081;BMP180;58740;50.672;18.690;2023-04-06T11:53:02;99233.80;;;4.30
71081;BMP180;58740;50.672;18.690;2023-04-06T11:55:38;99233.40;;;4.30
71081;BMP180;58740;50.672;18.690;2023-04-06T11:58:06;99240.40;;;4.30
71081;BMP180;58740;50.672;18.690;2023-04-06T12:00:34;99234.00;;;4.30
71081;BMP180;58740;50.672;18.690;2023-04-06T12:03:04;99230.80;;;4.30
71081;BMP180;58740;50.672;18.690;2023-04-06T12:05:33;99232.00;;;4.30
71081;BMP180;58740;50.672;18.690;2023-04-06T12:08:01;99230.60;;;4.30
71081;BMP180;58740;50.672;18.690;2023-04-06T12:10:30;99226.00;;;4.30
71081;BMP180;58740;50.672;18.690;2023-04-06T12:12:58;99225.20;;;4.30
71081;BMP180;58740;50.672;18.690;2023-04-06T12:15:26;99219.80;;;4.30
71081;BMP180;58740;50.672;18.690;2023-04-06T12:17:53;99223.40;;;4.30
71081;BMP180;58740;50.672;18.690;2023-04-06T12:20:21;99219.80;;;4.30
71081;BMP180;58740;50.672;18.690;2023-04-06T12:22:54;99224.40;;;4.30
71081;BMP180;58740;50.672;18.690;2023-04-06T12:25:22;99218.20;;;4.30
71081;BMP180;58740;50.672;18.690;2023-04-06T12:27:50;99222.60;;;4.30
71081;BMP180;58740;50.672;18.690;2023-04-06T12:30:18;99213.60;;;4.30
71081;BMP180;58740;50.672;18.690;2023-04-06T12:32:47;99220.20;;;4.30
71081;BMP180;58740;50.672;18.690;2023-04-06T12:35:18;99219.00;;;4.30
71081;BMP180;58740;50.672;18.690;2023-04-06T12:37:46;99213.60;;;4.30
71081;BMP180;58740;50.672;18.690;2023-04-06T12:40:14;99217.00;;;4.30
71081;BMP180;58740;50.672;18.690;2023-04-06T12:42:44;99214.60;;;4.30
71081;BMP180;58740;50.672;18.690;2023-04-06T12:45:13;99216.00;;;4.30
71081;BMP180;58740;50.672;18.690;2023-04-06T12:47:41;99210.80;;;4.20
71081;BMP180;58740;50.672;18.690;2023-04-06T12:50:10;99212.80;;;4.20
71081;BMP180;58740;50.672;18.690;2023-04-06T12:52:38;99212.20;;;4.20
71081;BMP180;58740;50.672;18.690;2023-04-06T12:55:06;99205.20;;;4.20
71081;BMP180;58740;50.672;18.690;2023-04-06T12:57:35;99205.20;;;4.20
71081;BMP180;58740;50.672;18.690;2023-04-06T13:00:06;99201.80;;;4.20
71081;BMP180;58740;50.672;18.690;2023-04-06T13:02:39;99197.80;;;4.22
71081;BMP180;58740;50.672;18.690;2023-04-06T13:05:07;99194.80;;;4.28
71081;BMP180;58740;50.672;18.690;2023-04-06T13:07:36;99200.20;;;4.30
71081;BMP180;58740;50.672;18.690;2023-04-06T13:10:05;99194.00;;;4.30
71081;BMP180;58740;50.672;18.690;2023-04-06T13:12:34;99188.00;;;4.30
71081;BMP180;58740;50.672;18.690;2023-04-06T13:15:02;99191.40;;;4.30
71081;BMP180;58740;50.672;18.690;2023-04-06T13:17:31;99186.80;;;4.30
71081;BMP180;58740;50.672;18.690;2023-04-06T13:19:59;99185.20;;;4.30
71081;BMP180;58740;50.672;18.690;2023-04-06T13:22:28;99181.60;;;4.34
71081;BMP180;58740;50.672;18.690;2023-04-06T13:24:59;99177.00;;;4.34
71081;BMP180;58740;50.672;18.690;2023-04-06T13:27:26;99173.80;;;4.30
71081;BMP180;58740;50.672;18.690;2023-04-06T13:29:55;99164.20;;;4.30
71081;BMP180;58740;50.672;18.690;2023-04-06T13:32:23;99168.60;;;4.30
71081;BMP180;58740;50.672;18.690;2023-04-06T13:34:55;99169.80;;;4.30
71081;BMP180;58740;50.672;18.690;2023-04-06T13:37:23;99163.20;;;4.30
71081;BMP180;58740;50.672;18.690;2023-04-06T13:39:51;99167.00;;;4.30
71081;BMP180;58740;50.672;18.690;2023-04-06T13:42:19;99168.20;;;4.28
71081;BMP180;58740;50.672;18.690;2023-04-06T13:44:47;99163.00;;;4.20
71081;BMP180;58740;50.672;18.690;2023-04-06T13:47:15;99158.80;;;4.20
71081;BMP180;58740;50.672;18.690;2023-04-06T13:49:43;99166.40;;;4.20
71081;BMP180;58740;50.672;18.690;2023-04-06T13:52:11;99172.20;;;4.10
71081;BMP180;58740;50.672;18.690;2023-04-06T13:54:38;99162.60;;;4.10
71081;BMP180;58740;50.672;18.690;2023-04-06T13:57:06;99159.20;;;4.10
71081;BMP180;58740;50.672;18.690;2023-04-06T13:59:35;99170.40;;;4.10
71081;BMP180;58740;50.672;18.690;2023-04-06T14:02:06;99167.40;;;4.10
71081;BMP180;58740;50.672;18.690;2023-04-06T14:04:34;99177.00;;;4.10
71081;BMP180;58740;50.672;18.690;2023-04-06T14:07:03;99166.60;;;4.04
71081;BMP180;58740;50.672;18.690;2023-04-06T14:09:31;99164.20;;;4.00
71081;BMP180;58740;50.672;18.690;2023-04-06T14:11:58;99165.80;;;4.00
71081;BMP180;58740;50.672;18.690;2023-04-06T14:14:27;99170.80;;;4.00
71081;BMP180;58740;50.672;18.690;2023-04-06T14:16:55;99162.00;;;4.00